Rosenberg's Hourly Summary for Wednesday, April 19, 2017
Hour Temp
(f)
RH
(%)
Solar Rad.
(MJ/m2)
Rainfall
(in)
Wind
(mph)
4/19/2017 12:00 AM 60 93 0 0 0.57
4/19/2017 1:00 AM 60 94 0 0 0.57
4/19/2017 2:00 AM 60 94 0 0 0.67
4/19/2017 3:00 AM 60 94 0 0 0.57
4/19/2017 4:00 AM 60 94 0 0 0.57
4/19/2017 5:00 AM 60 94 0.01 0 0.57
4/19/2017 6:00 AM 61 94 0.12 0 2.36
4/19/2017 7:00 AM 63 89 0.84 0 3.84
4/19/2017 8:00 AM 68 78 1.68 0 5.01
4/19/2017 9:00 AM 71 74 2.16 0 6.09
4/19/2017 10:00 AM 74 68 2.46 0 6.21
4/19/2017 11:00 AM 75 65 2.16 0 6.78
4/19/2017 12:00 PM 77 60 2.04 0 7.5
4/19/2017 1:00 PM 77 62 1.8 0 6.72
4/19/2017 2:00 PM 78 59 1.97 0 7.08
4/19/2017 3:00 PM 77 59 1.75 0 8.38
4/19/2017 4:00 PM 76 62 0.83 0 7.35
4/19/2017 5:00 PM 76 64 0.74 0 8.38
4/19/2017 6:00 PM 73 70 0.15 0 6.59
4/19/2017 7:00 PM 71 77 0 0 3.73
4/19/2017 8:00 PM 69 84 0 0 3.33
4/19/2017 9:00 PM 68 88 0 0 4.39
4/19/2017 10:00 PM 67 90 0 0 2.73
4/19/2017 11:00 PM 66 91 0 0 2.08
Data Summary 68 79 18.71 0.00 4.25